Time;durP1;ratioP1;P1;durP2;ratioP2;P2;SDS_P1;SDS_P2;PMS_P1;PMS_P2;Temp;Humidity;BMP_temperature;BMP_pressure;BME280_temperature;BME280_humidity;BME280_pressure;Samples;Min_cycle;Max_cycle;Signal;HPM_P1;HPM_P2
2023/11/12 00:02:24;;;;;;;3.00;2.80;;;5.80;56.50;;;;;;4978233;28;20207;-55
2023/11/12 00:04:51;;;;;;;3.20;3.00;;;5.70;56.40;;;;;;4985983;28;20311;-56
2023/11/12 00:07:17;;;;;;;2.63;2.43;;;5.80;56.80;;;;;;4992214;28;20403;-57
2023/11/12 00:09:44;;;;;;;2.93;2.63;;;5.80;56.80;;;;;;4987471;28;20224;-58
2023/11/12 00:12:11;;;;;;;3.17;2.97;;;5.80;56.20;;;;;;4988407;28;20614;-62
2023/11/12 00:14:40;;;;;;;2.80;2.60;;;5.90;56.80;;;;;;4985520;28;20574;-51
2023/11/12 00:17:06;;;;;;;2.80;2.60;;;5.90;56.60;;;;;;4984482;28;20306;-56
2023/11/12 00:19:33;;;;;;;4.67;3.37;;;5.90;56.10;;;;;;4988577;28;20258;-57
2023/11/12 00:21:59;;;;;;;3.50;2.70;;;5.90;56.50;;;;;;4990169;28;20291;-55
2023/11/12 00:24:27;;;;;;;2.70;2.50;;;5.90;56.40;;;;;;4985085;28;20609;-53
2023/11/12 00:26:54;;;;;;;2.90;2.70;;;5.90;56.50;;;;;;4991634;28;20291;-55
2023/11/12 00:29:20;;;;;;;2.90;2.70;;;5.90;56.50;;;;;;4993256;28;20698;-54
2023/11/12 00:31:47;;;;;;;2.83;2.60;;;5.90;56.60;;;;;;4987127;28;20392;-52
2023/11/12 00:34:13;;;;;;;2.80;2.60;;;5.90;56.70;;;;;;4991077;28;20262;-57
2023/11/12 00:36:42;;;;;;;3.00;2.80;;;5.90;56.70;;;;;;4987078;28;20208;-55
2023/11/12 00:39:09;;;;;;;2.83;2.60;;;5.90;57.00;;;;;;4989700;28;20294;-55
2023/11/12 00:41:37;;;;;;;2.57;2.40;;;5.90;57.00;;;;;;4987480;28;20566;-56
2023/11/12 00:44:04;;;;;;;2.90;2.70;;;5.90;57.10;;;;;;4986541;28;20219;-61
2023/11/12 00:46:30;;;;;;;3.00;2.80;;;5.80;57.20;;;;;;4988202;28;20760;-55
2023/11/12 00:48:57;;;;;;;3.00;2.80;;;5.80;57.20;;;;;;4991272;28;20274;-56
2023/11/12 00:51:24;;;;;;;3.70;3.00;;;5.90;57.40;;;;;;4986376;28;20208;-56
2023/11/12 00:53:51;;;;;;;2.90;2.70;;;5.80;57.40;;;;;;4987255;28;20357;-56
2023/11/12 00:56:17;;;;;;;2.90;2.70;;;5.80;57.20;;;;;;4991759;28;20239;-51
2023/11/12 00:58:44;;;;;;;2.80;2.50;;;5.90;57.10;;;;;;4990968;28;20286;-55
2023/11/12 01:01:11;;;;;;;2.83;2.50;;;5.80;57.20;;;;;;4987465;28;20208;-58
2023/11/12 01:03:37;;;;;;;3.13;2.80;;;5.80;57.00;;;;;;4982305;28;20200;-55
2023/11/12 01:06:04;;;;;;;2.90;2.37;;;5.70;56.90;;;;;;4979445;28;20252;-55
2023/11/12 01:08:30;;;;;;;2.90;2.47;;;5.70;57.60;;;;;;4983593;28;20316;-51
2023/11/12 01:10:57;;;;;;;3.33;2.50;;;5.80;58.50;;;;;;4989952;28;20204;-60
2023/11/12 01:13:23;;;;;;;2.83;2.67;;;5.70;59.30;;;;;;4984445;28;20207;-55
2023/11/12 01:15:50;;;;;;;2.63;2.53;;;5.60;60.10;;;;;;4990362;28;20228;-54
2023/11/12 01:18:17;;;;;;;3.87;2.80;;;5.50;61.20;;;;;;4985203;28;20290;-55
2023/11/12 01:20:43;;;;;;;3.47;3.00;;;5.40;62.50;;;;;;4986559;28;20240;-56
2023/11/12 01:23:10;;;;;;;2.90;2.70;;;5.40;62.30;;;;;;4984686;28;20243;-53
2023/11/12 01:25:36;;;;;;;2.47;2.27;;;5.40;62.10;;;;;;4991678;28;20338;-54
2023/11/12 01:28:03;;;;;;;2.67;2.50;;;5.50;61.90;;;;;;4990111;28;20287;-54
2023/11/12 01:30:30;;;;;;;3.40;3.10;;;5.50;62.30;;;;;;4991554;28;20298;-55
2023/11/12 01:32:56;;;;;;;2.60;2.40;;;5.50;62.50;;;;;;4988871;28;20228;-55
2023/11/12 01:35:23;;;;;;;2.60;2.40;;;5.60;63.00;;;;;;4990793;28;20234;-51
2023/11/12 01:37:50;;;;;;;2.40;2.30;;;5.60;63.20;;;;;;4990567;28;20207;-56
2023/11/12 01:40:17;;;;;;;2.80;2.60;;;5.60;62.20;;;;;;4986717;28;20212;-59
2023/11/12 01:42:43;;;;;;;3.10;2.90;;;5.70;62.90;;;;;;4989260;28;20211;-54
2023/11/12 01:45:10;;;;;;;3.93;3.00;;;5.70;64.20;;;;;;4990477;28;20315;-52
2023/11/12 01:47:37;;;;;;;3.53;2.67;;;5.70;64.20;;;;;;4982851;28;20592;-55
2023/11/12 01:50:03;;;;;;;3.00;2.77;;;5.80;63.70;;;;;;4991226;28;20228;-55
2023/11/12 01:52:30;;;;;;;2.60;2.40;;;5.80;64.30;;;;;;4978748;28;20204;-52
2023/11/12 01:54:56;;;;;;;2.57;2.37;;;5.80;64.30;;;;;;4987041;28;20323;-54
2023/11/12 01:57:23;;;;;;;2.67;2.50;;;5.80;64.30;;;;;;4989581;28;20922;-53
2023/11/12 01:59:49;;;;;;;3.00;2.80;;;5.70;63.00;;;;;;4990728;28;20222;-55
2023/11/12 02:02:16;;;;;;;3.10;2.80;;;5.70;63.20;;;;;;4990884;28;20294;-55
2023/11/12 02:04:42;;;;;;;3.03;2.70;;;5.70;64.20;;;;;;4985798;28;20224;-56
2023/11/12 02:07:09;;;;;;;2.77;2.50;;;5.70;63.10;;;;;;4984295;28;20212;-56
2023/11/12 02:09:36;;;;;;;2.93;2.67;;;5.60;63.20;;;;;;4986006;28;20278;-57
2023/11/12 02:12:02;;;;;;;2.77;2.57;;;5.60;63.10;;;;;;4990277;28;20612;-55
2023/11/12 02:14:31;;;;;;;2.57;2.47;;;5.50;63.60;;;;;;4989346;28;20678;-52
2023/11/12 02:16:58;;;;;;;2.80;2.60;;;5.50;63.90;;;;;;4989648;28;20211;-53
2023/11/12 02:19:24;;;;;;;2.93;2.60;;;5.50;63.10;;;;;;4980126;28;20282;-57
2023/11/12 02:21:51;;;;;;;3.30;3.00;;;5.50;62.70;;;;;;4984408;28;20213;-57
2023/11/12 02:24:17;;;;;;;2.77;2.60;;;5.50;62.80;;;;;;4988750;28;20208;-56
2023/11/12 02:26:44;;;;;;;3.07;2.70;;;5.50;63.50;;;;;;4989325;28;20299;-55
2023/11/12 02:29:10;;;;;;;2.80;2.60;;;5.40;63.80;;;;;;4983227;28;20317;-56
2023/11/12 02:31:37;;;;;;;3.20;2.90;;;5.50;64.00;;;;;;4989679;28;20231;-57
2023/11/12 02:34:03;;;;;;;3.63;3.00;;;5.30;64.80;;;;;;4988109;28;20742;-56
2023/11/12 02:36:31;;;;;;;3.20;2.90;;;5.40;65.20;;;;;;4989084;28;20235;-53
2023/11/12 02:38:58;;;;;;;3.27;3.07;;;5.40;64.80;;;;;;4987905;28;20210;-55
2023/11/12 02:41:24;;;;;;;3.07;2.87;;;5.30;65.20;;;;;;4989149;28;20207;-59
2023/11/12 02:43:52;;;;;;;3.80;3.50;;;5.20;65.40;;;;;;4982854;28;20235;-56
2023/11/12 02:46:18;;;;;;;4.17;2.97;;;5.20;65.30;;;;;;4993274;28;20235;-54
2023/11/12 02:48:45;;;;;;;3.87;3.47;;;5.10;65.40;;;;;;4989694;28;20223;-56
2023/11/12 02:51:11;;;;;;;3.40;2.93;;;5.00;65.60;;;;;;4989081;28;20236;-54
2023/11/12 02:53:37;;;;;;;2.93;2.73;;;5.00;66.00;;;;;;4987644;28;20306;-60
2023/11/12 02:56:04;;;;;;;3.30;3.00;;;5.00;65.40;;;;;;4992993;28;20717;-59
2023/11/12 02:58:30;;;;;;;2.83;2.63;;;4.90;65.20;;;;;;4995304;28;20272;-56
2023/11/12 03:00:57;;;;;;;2.70;2.50;;;4.80;65.00;;;;;;4991907;28;20341;-59
2023/11/12 03:03:23;;;;;;;3.27;3.07;;;4.80;65.60;;;;;;4991881;28;20390;-52
2023/11/12 03:05:50;;;;;;;3.10;2.60;;;4.70;65.60;;;;;;4988739;28;20776;-54
2023/11/12 03:08:16;;;;;;;2.63;2.53;;;4.70;65.60;;;;;;4993188;28;20658;-58
2023/11/12 03:10:43;;;;;;;2.60;2.40;;;4.70;65.40;;;;;;4993890;28;20232;-57
2023/11/12 03:13:09;;;;;;;2.87;2.67;;;4.70;64.70;;;;;;4991637;28;20217;-53
2023/11/12 03:15:36;;;;;;;2.77;2.57;;;4.60;65.20;;;;;;4992182;28;20242;-57
2023/11/12 03:18:03;;;;;;;2.70;2.50;;;4.50;65.60;;;;;;4994424;28;20665;-58
2023/11/12 03:20:29;;;;;;;2.60;2.40;;;4.60;65.10;;;;;;4990868;28;20699;-56
2023/11/12 03:22:56;;;;;;;3.63;2.60;;;4.50;64.60;;;;;;4988942;28;20297;-57
2023/11/12 03:25:23;;;;;;;2.73;2.47;;;4.50;64.70;;;;;;4985203;28;20224;-54
2023/11/12 03:27:49;;;;;;;2.50;2.40;;;4.40;64.90;;;;;;4986161;28;20299;-57
2023/11/12 03:30:15;;;;;;;2.80;2.60;;;4.50;64.80;;;;;;4990768;28;20234;-56
2023/11/12 03:32:42;;;;;;;2.93;2.70;;;4.50;64.60;;;;;;4986167;28;20653;-57
2023/11/12 03:35:09;;;;;;;2.70;2.50;;;4.50;64.50;;;;;;4991976;28;20281;-54
2023/11/12 03:37:35;;;;;;;2.70;2.50;;;4.40;64.70;;;;;;4992548;28;20646;-51
2023/11/12 03:40:04;;;;;;;2.77;2.57;;;4.30;65.00;;;;;;4991394;28;20729;-53
2023/11/12 03:42:30;;;;;;;2.57;2.43;;;4.30;64.80;;;;;;4991980;28;20328;-56
2023/11/12 03:44:57;;;;;;;2.37;2.27;;;4.30;64.40;;;;;;4986142;28;20306;-52
2023/11/12 03:47:24;;;;;;;2.70;2.50;;;4.20;64.70;;;;;;4991795;28;20211;-52
2023/11/12 03:49:50;;;;;;;2.90;2.70;;;4.10;64.70;;;;;;4992110;28;20252;-55
2023/11/12 03:52:17;;;;;;;2.50;2.40;;;4.10;64.90;;;;;;4986775;28;20246;-53
2023/11/12 03:54:44;;;;;;;2.30;2.20;;;4.20;64.20;;;;;;4995156;28;20232;-52
2023/11/12 03:57:10;;;;;;;2.90;2.80;;;4.20;64.20;;;;;;4987921;28;20294;-52
2023/11/12 03:59:37;;;;;;;3.20;2.90;;;4.20;63.90;;;;;;4992603;28;20265;-56
2023/11/12 04:02:03;;;;;;;3.63;2.57;;;4.20;63.80;;;;;;4991435;28;20250;-55
2023/11/12 04:04:30;;;;;;;2.90;2.70;;;4.30;64.00;;;;;;4990307;28;20274;-53
2023/11/12 04:06:57;;;;;;;2.87;2.67;;;4.20;63.20;;;;;;4989125;28;20242;-56
2023/11/12 04:09:23;;;;;;;2.63;2.30;;;4.10;63.70;;;;;;4979793;28;20260;-61
2023/11/12 04:11:50;;;;;;;3.23;2.50;;;4.00;63.70;;;;;;4990563;28;20736;-60
2023/11/12 04:14:16;;;;;;;2.90;2.70;;;4.00;63.60;;;;;;4983690;28;20269;-57
2023/11/12 04:16:42;;;;;;;2.80;2.60;;;3.90;63.60;;;;;;4986774;28;20242;-52
2023/11/12 04:19:09;;;;;;;3.40;3.10;;;3.90;63.60;;;;;;4984991;28;20290;-54
2023/11/12 04:21:35;;;;;;;3.47;2.70;;;3.90;63.90;;;;;;4991197;28;20213;-58
2023/11/12 04:24:02;;;;;;;2.83;2.63;;;4.00;63.40;;;;;;4992113;28;20265;-59
2023/11/12 04:26:31;;;;;;;2.60;2.40;;;4.00;63.20;;;;;;4987361;28;20253;-59
2023/11/12 04:28:57;;;;;;;2.70;2.57;;;4.00;63.50;;;;;;4990044;28;20206;-53
2023/11/12 04:31:23;;;;;;;2.90;2.70;;;3.90;63.20;;;;;;4987141;28;20241;-53
2023/11/12 04:33:52;;;;;;;2.70;2.50;;;3.90;62.60;;;;;;4987719;28;20249;-54
2023/11/12 04:36:18;;;;;;;3.57;2.67;;;3.80;62.50;;;;;;4989948;28;20231;-54
2023/11/12 04:38:45;;;;;;;2.97;2.77;;;3.90;62.60;;;;;;4984987;28;20203;-56
2023/11/12 04:41:11;;;;;;;3.43;3.17;;;3.90;62.60;;;;;;4991307;28;20210;-52
2023/11/12 04:43:38;;;;;;;3.80;2.60;;;3.90;62.60;;;;;;4991580;28;20596;-55
2023/11/12 04:46:06;;;;;;;2.97;2.57;;;4.00;62.70;;;;;;4990675;28;20227;-52
2023/11/12 04:48:32;;;;;;;2.70;2.50;;;3.90;63.30;;;;;;4987137;28;20252;-60
2023/11/12 04:51:00;;;;;;;2.80;2.60;;;3.90;62.70;;;;;;4976938;28;20314;-55
2023/11/12 04:53:26;;;;;;;2.83;2.63;;;4.00;62.70;;;;;;4989619;28;20687;-56
2023/11/12 04:55:53;;;;;;;2.70;2.50;;;3.90;62.60;;;;;;4991006;28;20237;-56
2023/11/12 04:58:19;;;;;;;3.07;2.77;;;3.80;62.50;;;;;;4983305;28;20212;-56
2023/11/12 05:00:46;;;;;;;2.47;2.37;;;3.90;62.60;;;;;;4991556;28;20210;-60
2023/11/12 05:03:12;;;;;;;2.83;2.63;;;3.80;62.50;;;;;;4987087;28;20300;-58
2023/11/12 05:05:39;;;;;;;2.60;2.50;;;3.80;62.00;;;;;;4991561;28;20286;-55
2023/11/12 05:08:05;;;;;;;2.33;2.23;;;3.80;61.50;;;;;;4981693;28;20298;-56
2023/11/12 05:10:32;;;;;;;2.83;2.67;;;3.80;61.50;;;;;;4985596;28;20741;-53
2023/11/12 05:12:58;;;;;;;2.37;2.23;;;3.80;61.60;;;;;;4987313;28;20700;-57
2023/11/12 05:15:25;;;;;;;3.00;2.80;;;3.90;61.70;;;;;;4989672;28;20262;-56
2023/11/12 05:17:52;;;;;;;2.40;2.30;;;3.90;61.80;;;;;;4991097;28;20211;-53
2023/11/12 05:20:18;;;;;;;2.87;2.67;;;3.80;61.80;;;;;;4990158;28;20210;-57
2023/11/12 05:22:45;;;;;;;2.60;2.40;;;3.80;61.80;;;;;;4991698;28;20297;-59
2023/11/12 05:25:11;;;;;;;2.30;2.20;;;3.80;61.80;;;;;;4987887;28;20284;-55
2023/11/12 05:27:37;;;;;;;2.53;2.43;;;3.80;61.90;;;;;;4989303;28;20236;-55
2023/11/12 05:30:04;;;;;;;3.13;2.93;;;3.80;62.50;;;;;;4992016;28;20310;-56
2023/11/12 05:32:31;;;;;;;2.80;2.60;;;3.80;61.40;;;;;;4979353;28;20269;-56
2023/11/12 05:34:57;;;;;;;3.57;2.80;;;3.80;61.20;;;;;;4986764;28;20231;-57
2023/11/12 05:37:23;;;;;;;2.60;2.40;;;3.80;61.60;;;;;;4990531;28;20245;-58
2023/11/12 05:39:50;;;;;;;2.50;2.37;;;3.90;61.70;;;;;;4991131;28;20214;-55
2023/11/12 05:42:16;;;;;;;2.50;2.30;;;3.90;61.90;;;;;;4985942;28;20213;-54
2023/11/12 05:44:43;;;;;;;3.13;2.90;;;3.90;62.00;;;;;;4984802;28;20307;-52
2023/11/12 05:47:09;;;;;;;2.70;2.50;;;3.90;62.40;;;;;;4990254;28;20210;-56
2023/11/12 05:49:36;;;;;;;2.73;2.63;;;3.90;61.80;;;;;;4990968;28;20265;-54
2023/11/12 05:52:02;;;;;;;2.87;2.67;;;3.90;62.60;;;;;;4989673;28;20290;-58
2023/11/12 05:54:29;;;;;;;3.00;2.77;;;3.80;62.90;;;;;;4983502;28;20270;-59
2023/11/12 05:56:56;;;;;;;2.60;2.40;;;3.70;63.30;;;;;;4988404;28;20292;-55
2023/11/12 05:59:23;;;;;;;2.63;2.43;;;3.70;63.70;;;;;;4988429;28;20213;-58
2023/11/12 06:01:49;;;;;;;3.00;2.80;;;3.70;64.20;;;;;;4991663;28;20742;-56
2023/11/12 06:04:15;;;;;;;2.87;2.67;;;3.60;64.00;;;;;;4990072;28;20211;-55
2023/11/12 06:06:42;;;;;;;3.40;2.73;;;3.60;63.10;;;;;;4992556;28;20413;-54
2023/11/12 06:09:08;;;;;;;2.97;2.77;;;3.60;63.00;;;;;;4988949;28;20216;-52
2023/11/12 06:11:35;;;;;;;2.80;2.60;;;3.60;63.00;;;;;;4986861;28;20309;-53
2023/11/12 06:14:01;;;;;;;2.30;2.20;;;3.60;62.30;;;;;;4987024;28;20312;-57
2023/11/12 06:16:28;;;;;;;2.40;2.30;;;3.60;61.90;;;;;;4992732;28;20326;-56
2023/11/12 06:18:55;;;;;;;2.63;2.43;;;3.50;61.60;;;;;;4993989;28;20640;-53
2023/11/12 06:21:21;;;;;;;2.60;2.40;;;3.60;61.60;;;;;;4995458;28;20257;-52
2023/11/12 06:23:48;;;;;;;2.60;2.40;;;3.60;61.90;;;;;;4995682;28;20239;-57
2023/11/12 06:26:14;;;;;;;2.63;2.43;;;3.60;61.90;;;;;;4993313;28;20229;-56
2023/11/12 06:28:40;;;;;;;3.17;2.87;;;3.60;61.70;;;;;;4994376;28;20217;-52
2023/11/12 06:31:07;;;;;;;2.60;2.50;;;3.50;61.60;;;;;;4987504;28;20285;-54
2023/11/12 06:33:33;;;;;;;3.40;2.30;;;3.50;62.00;;;;;;4983166;28;20220;-59
2023/11/12 06:36:01;;;;;;;2.60;2.40;;;3.40;62.10;;;;;;4989484;28;20316;-58
2023/11/12 06:38:27;;;;;;;4.03;2.40;;;3.50;61.90;;;;;;4975709;28;20555;-54
2023/11/12 06:40:54;;;;;;;2.70;2.53;;;3.40;62.00;;;;;;4989758;28;20289;-57
2023/11/12 06:43:20;;;;;;;2.47;2.33;;;3.40;61.40;;;;;;4988531;28;20293;-57
2023/11/12 06:45:47;;;;;;;2.87;2.67;;;3.50;61.60;;;;;;4993179;28;20235;-58
2023/11/12 06:48:13;;;;;;;2.80;2.60;;;3.40;62.00;;;;;;4992226;28;20207;-56
2023/11/12 06:50:40;;;;;;;2.40;2.30;;;3.60;61.90;;;;;;4985858;28;20233;-54
2023/11/12 06:53:06;;;;;;;2.83;2.50;;;3.60;61.40;;;;;;4984703;28;20680;-55
2023/11/12 06:55:33;;;;;;;2.57;2.40;;;3.60;61.10;;;;;;4984005;28;20254;-57
2023/11/12 06:57:59;;;;;;;5.87;2.90;;;3.70;61.00;;;;;;4985235;28;20219;-57
2023/11/12 07:00:26;;;;;;;3.03;2.83;;;3.70;60.60;;;;;;4990257;28;20254;-55
2023/11/12 07:02:54;;;;;;;2.80;2.60;;;3.70;60.80;;;;;;4992350;28;20710;-52
2023/11/12 07:05:20;;;;;;;3.00;2.80;;;3.80;60.50;;;;;;4994588;28;20256;-53
2023/11/12 07:07:47;;;;;;;2.60;2.40;;;3.80;60.30;;;;;;4991165;28;20210;-52
2023/11/12 07:10:13;;;;;;;3.07;2.60;;;3.90;59.70;;;;;;4992722;28;20235;-55
2023/11/12 07:12:40;;;;;;;2.57;2.37;;;4.00;59.90;;;;;;4984480;28;20306;-58
2023/11/12 07:15:06;;;;;;;2.83;2.63;;;4.10;59.70;;;;;;4983216;28;20313;-52
2023/11/12 07:17:33;;;;;;;3.03;2.80;;;4.20;59.70;;;;;;4980778;28;20705;-51
2023/11/12 07:19:59;;;;;;;2.70;2.20;;;4.20;59.00;;;;;;4986382;28;20628;-50
2023/11/12 07:22:26;;;;;;;2.40;2.30;;;4.30;59.20;;;;;;4987569;28;20203;-54
2023/11/12 07:24:54;;;;;;;2.80;2.60;;;4.40;60.10;;;;;;4983084;28;20283;-54
2023/11/12 07:27:21;;;;;;;2.77;2.47;;;4.40;60.80;;;;;;4983391;28;20210;-57
2023/11/12 07:29:47;;;;;;;3.10;2.40;;;4.40;61.00;;;;;;4984152;28;20212;-54
2023/11/12 07:32:14;;;;;;;4.47;2.60;;;4.50;61.00;;;;;;4991546;28;20306;-56
2023/11/12 07:34:40;;;;;;;2.77;2.43;;;4.50;60.90;;;;;;4984632;28;20226;-57
2023/11/12 07:37:07;;;;;;;2.73;2.53;;;4.60;61.20;;;;;;4983376;28;20211;-56
2023/11/12 07:39:33;;;;;;;2.63;2.50;;;4.50;60.40;;;;;;4981842;28;20226;-55
2023/11/12 07:42:00;;;;;;;2.77;2.57;;;4.50;61.00;;;;;;4982660;28;20722;-54
2023/11/12 07:44:26;;;;;;;2.60;2.40;;;4.60;61.30;;;;;;4992848;28;20278;-55
2023/11/12 07:46:53;;;;;;;2.93;2.73;;;4.70;60.80;;;;;;4986392;28;20303;-55
2023/11/12 07:49:19;;;;;;;2.63;2.53;;;4.70;60.00;;;;;;4993006;28;20207;-58
2023/11/12 07:51:48;;;;;;;2.87;2.60;;;4.80;59.80;;;;;;4979277;28;20229;-55
2023/11/12 07:54:14;;;;;;;2.70;2.50;;;4.90;59.70;;;;;;4986722;28;20216;-55
2023/11/12 07:56:41;;;;;;;3.17;2.40;;;4.90;59.40;;;;;;4988462;28;20287;-55
2023/11/12 07:59:08;;;;;;;2.60;2.40;;;5.00;59.80;;;;;;4992776;28;20738;-53
2023/11/12 08:01:35;;;;;;;2.33;2.23;;;5.00;59.00;;;;;;4982207;28;20259;-55
2023/11/12 08:04:01;;;;;;;2.40;2.30;;;5.00;58.00;;;;;;4979862;28;20663;-55
2023/11/12 08:06:28;;;;;;;2.53;2.13;;;5.00;55.60;;;;;;4991340;28;20290;-56
2023/11/12 08:08:54;;;;;;;2.40;2.20;;;4.90;56.00;;;;;;4984128;28;20466;-55
2023/11/12 08:11:21;;;;;;;2.50;2.40;;;5.10;55.70;;;;;;4979168;28;20272;-57
2023/11/12 08:13:47;;;;;;;2.57;2.47;;;5.20;56.30;;;;;;4985031;28;20211;-56
2023/11/12 08:16:13;;;;;;;2.60;2.40;;;5.20;54.90;;;;;;4989377;28;20228;-56
2023/11/12 08:18:40;;;;;;;2.57;2.37;;;5.10;54.80;;;;;;4992764;28;20298;-57
2023/11/12 08:21:06;;;;;;;2.60;2.40;;;5.30;55.00;;;;;;4990709;28;20215;-57
2023/11/12 08:23:33;;;;;;;3.00;2.30;;;5.40;55.00;;;;;;4992145;28;20715;-54
2023/11/12 08:25:59;;;;;;;3.43;2.23;;;5.50;55.80;;;;;;4992670;28;20627;-58
2023/11/12 08:28:26;;;;;;;2.60;2.50;;;5.70;55.90;;;;;;4978155;28;20225;-53
2023/11/12 08:30:52;;;;;;;2.73;2.50;;;5.80;54.20;;;;;;4980355;28;20234;-57
2023/11/12 08:33:19;;;;;;;2.43;2.30;;;5.90;54.40;;;;;;4988655;28;20243;-54
2023/11/12 08:35:45;;;;;;;2.40;2.30;;;6.10;55.20;;;;;;4991310;28;20706;-52
2023/11/12 08:38:12;;;;;;;2.40;2.30;;;6.20;54.90;;;;;;4972451;28;20217;-56
2023/11/12 08:40:41;;;;;;;2.83;2.63;;;6.30;54.20;;;;;;4951986;28;20203;-59
2023/11/12 08:43:08;;;;;;;2.60;2.40;;;6.30;54.80;;;;;;4971159;28;20429;-57
2023/11/12 08:45:34;;;;;;;2.80;2.50;;;6.30;54.40;;;;;;4978552;28;20308;-54
2023/11/12 08:48:01;;;;;;;2.20;2.00;;;6.30;53.90;;;;;;4983032;28;20289;-56
2023/11/12 08:50:28;;;;;;;3.03;2.47;;;6.30;53.30;;;;;;4977985;28;20230;-55
2023/11/12 08:52:56;;;;;;;2.30;2.20;;;6.30;53.00;;;;;;4963346;28;20586;-57
2023/11/12 08:55:23;;;;;;;2.40;2.20;;;6.40;52.50;;;;;;4982034;28;20236;-56
2023/11/12 08:57:49;;;;;;;2.93;2.60;;;6.50;51.60;;;;;;4972834;28;20224;-65
2023/11/12 09:00:16;;;;;;;2.90;2.70;;;6.60;51.60;;;;;;4989463;28;20607;-56
2023/11/12 09:02:44;;;;;;;2.17;2.03;;;6.60;51.60;;;;;;4989802;28;20292;-56
2023/11/12 09:05:11;;;;;;;2.90;2.70;;;6.80;52.30;;;;;;4991649;28;20615;-57
2023/11/12 09:07:37;;;;;;;2.93;2.73;;;6.90;53.00;;;;;;4991724;28;20641;-55
2023/11/12 09:10:04;;;;;;;3.23;2.93;;;6.90;54.00;;;;;;4991916;28;20209;-57
2023/11/12 09:12:31;;;;;;;2.80;2.60;;;6.90;53.70;;;;;;4964834;28;20313;-55
2023/11/12 09:14:57;;;;;;;3.37;3.07;;;7.00;53.60;;;;;;4973824;28;20299;-57
2023/11/12 09:17:24;;;;;;;3.00;2.70;;;7.10;53.60;;;;;;4992614;28;20269;-57
2023/11/12 09:19:50;;;;;;;2.90;2.70;;;7.10;53.20;;;;;;4991872;28;20225;-57
2023/11/12 09:22:17;;;;;;;2.77;2.53;;;7.00;53.50;;;;;;4991094;28;20297;-58
2023/11/12 09:24:45;;;;;;;2.67;2.47;;;7.00;52.60;;;;;;4986073;28;20325;-57
2023/11/12 09:27:11;;;;;;;3.30;3.07;;;7.00;53.20;;;;;;4989705;28;20681;-57
2023/11/12 09:29:38;;;;;;;2.93;2.73;;;7.10;53.40;;;;;;4991527;28;20311;-57
2023/11/12 09:32:04;;;;;;;2.87;2.67;;;7.30;52.90;;;;;;4978585;28;20240;-59
2023/11/12 09:34:31;;;;;;;2.90;2.67;;;7.60;52.20;;;;;;4984375;28;20716;-58
2023/11/12 09:36:57;;;;;;;2.53;2.43;;;8.00;51.50;;;;;;4989532;28;20294;-56
2023/11/12 09:39:24;;;;;;;2.80;2.63;;;8.20;51.30;;;;;;4990682;28;20298;-57
2023/11/12 09:41:51;;;;;;;2.80;2.60;;;8.10;50.70;;;;;;4983919;28;20204;-56
2023/11/12 09:44:17;;;;;;;2.83;2.63;;;8.00;51.30;;;;;;4989111;28;20310;-57
2023/11/12 09:46:44;;;;;;;2.80;2.60;;;7.90;51.30;;;;;;4989930;28;20620;-59
2023/11/12 09:49:10;;;;;;;3.87;3.50;;;7.90;51.90;;;;;;4985961;28;20271;-59
2023/11/12 09:51:37;;;;;;;4.50;3.40;;;7.90;51.40;;;;;;4958649;28;20243;-56
2023/11/12 09:54:03;;;;;;;4.27;3.10;;;7.70;52.10;;;;;;4977027;28;20204;-57
2023/11/12 09:56:30;;;;;;;4.43;3.77;;;7.70;52.60;;;;;;4988547;28;20428;-59
2023/11/12 09:58:56;;;;;;;3.67;3.43;;;7.80;52.70;;;;;;4991688;28;20307;-55
2023/11/12 10:01:23;;;;;;;4.67;4.27;;;7.70;52.50;;;;;;4989930;28;20204;-55
2023/11/12 10:03:50;;;;;;;4.53;4.07;;;7.70;52.60;;;;;;4990371;28;20211;-57
2023/11/12 10:06:20;;;;;;;4.50;4.20;;;7.70;53.30;;;;;;4989856;28;20324;-58
2023/11/12 10:08:47;;;;;;;4.33;3.93;;;7.90;52.70;;;;;;4985260;28;20208;-57
2023/11/12 10:11:13;;;;;;;4.23;3.93;;;8.10;52.30;;;;;;4979420;28;20321;-56
2023/11/12 10:13:39;;;;;;;4.00;3.67;;;8.20;52.00;;;;;;4987938;28;20304;-59
2023/11/12 10:16:06;;;;;;;4.53;4.13;;;8.40;51.80;;;;;;4989881;28;20319;-57
2023/11/12 10:18:33;;;;;;;4.57;4.17;;;8.10;52.10;;;;;;4986387;28;20231;-56
2023/11/12 10:20:59;;;;;;;4.67;4.20;;;7.90;52.00;;;;;;4991191;28;20272;-57
2023/11/12 10:23:26;;;;;;;5.20;4.80;;;7.70;53.10;;;;;;4985907;28;20247;-59
2023/11/12 10:25:53;;;;;;;3.97;3.57;;;7.60;54.00;;;;;;4973217;28;20253;-58
2023/11/12 10:28:19;;;;;;;4.13;3.67;;;7.60;53.60;;;;;;4947321;28;20796;-56
2023/11/12 10:30:47;;;;;;;3.77;3.50;;;8.00;52.60;;;;;;4967503;28;20234;-57
2023/11/12 10:33:13;;;;;;;3.90;3.60;;;8.00;52.10;;;;;;4984308;28;20576;-59
2023/11/12 10:35:40;;;;;;;4.80;4.40;;;8.10;52.00;;;;;;4979986;28;20320;-59
2023/11/12 10:38:06;;;;;;;4.67;4.27;;;8.00;51.80;;;;;;4969167;28;20216;-52
2023/11/12 10:40:33;;;;;;;3.73;3.40;;;7.90;52.40;;;;;;4950840;28;20627;-52
2023/11/12 10:42:59;;;;;;;4.93;4.47;;;8.10;51.50;;;;;;4976602;28;20219;-59
2023/11/12 10:45:27;;;;;;;4.97;3.83;;;8.40;51.40;;;;;;4966732;28;20361;-57
2023/11/12 10:47:53;;;;;;;4.70;4.20;;;9.20;50.20;;;;;;4975221;28;20206;-53
2023/11/12 10:50:20;;;;;;;4.67;3.40;;;9.10;48.90;;;;;;4974596;28;20216;-56
2023/11/12 10:52:46;;;;;;;4.00;3.60;;;9.60;47.70;;;;;;4973782;28;20255;-57
2023/11/12 10:55:14;;;;;;;4.07;3.73;;;9.30;48.60;;;;;;4986906;28;20702;-56
2023/11/12 10:57:42;;;;;;;3.50;3.20;;;9.40;48.20;;;;;;4984964;28;20639;-57
2023/11/12 11:00:10;;;;;;;5.40;3.83;;;9.30;47.70;;;;;;4983061;28;20226;-54
2023/11/12 11:02:37;;;;;;;4.20;3.80;;;9.10;48.60;;;;;;4991557;28;20209;-53
2023/11/12 11:05:04;;;;;;;5.03;3.93;;;9.00;48.90;;;;;;4987131;28;20315;-57
2023/11/12 11:07:31;;;;;;;3.77;3.40;;;8.70;49.60;;;;;;4977885;28;20260;-55
2023/11/12 11:09:57;;;;;;;4.60;4.20;;;8.50;50.20;;;;;;4962246;28;24916;-52
2023/11/12 11:12:24;;;;;;;3.77;3.40;;;8.50;50.70;;;;;;4965055;28;20331;-52
2023/11/12 11:14:51;;;;;;;4.37;3.97;;;8.30;51.00;;;;;;4989125;28;20228;-53
2023/11/12 11:17:17;;;;;;;4.27;3.77;;;8.20;51.80;;;;;;4977336;28;20269;-52
2023/11/12 11:19:44;;;;;;;4.10;3.70;;;8.00;50.70;;;;;;4991431;28;20299;-54
2023/11/12 11:22:11;;;;;;;4.80;4.30;;;8.00;51.60;;;;;;4969472;28;20313;-52
2023/11/12 11:24:37;;;;;;;4.20;3.80;;;8.00;51.80;;;;;;4993916;28;20346;-54
2023/11/12 11:27:04;;;;;;;4.23;3.87;;;8.00;51.90;;;;;;4981632;28;20299;-52
2023/11/12 11:29:30;;;;;;;4.00;3.70;;;7.90;51.30;;;;;;4990660;28;20306;-54
2023/11/12 11:31:56;;;;;;;4.30;4.00;;;7.80;52.20;;;;;;4990492;28;20231;-54
2023/11/12 11:34:22;;;;;;;4.60;4.20;;;7.80;51.80;;;;;;4993599;28;20297;-52
2023/11/12 11:36:49;;;;;;;5.23;4.07;;;7.80;52.60;;;;;;4984245;28;20215;-56
2023/11/12 11:39:17;;;;;;;4.77;4.27;;;7.90;52.00;;;;;;4988563;28;20645;-56
2023/11/12 11:41:43;;;;;;;4.17;3.80;;;7.90;52.70;;;;;;4985965;28;20753;-55
2023/11/12 11:44:10;;;;;;;4.43;4.03;;;7.90;52.70;;;;;;4992444;28;20269;-56
2023/11/12 11:46:36;;;;;;;4.20;3.83;;;7.90;52.00;;;;;;4988226;28;20318;-55
2023/11/12 11:49:04;;;;;;;5.67;4.43;;;7.90;52.00;;;;;;4991900;28;20211;-56
2023/11/12 11:51:30;;;;;;;4.53;4.17;;;7.90;51.90;;;;;;4989139;28;20222;-53
2023/11/12 11:53:57;;;;;;;4.20;3.90;;;8.00;52.10;;;;;;4981274;28;20262;-56
2023/11/12 11:56:25;;;;;;;4.10;3.80;;;8.00;52.40;;;;;;4986367;28;20227;-52
2023/11/12 11:58:51;;;;;;;4.10;3.80;;;8.00;51.80;;;;;;4959819;28;20851;-56
2023/11/12 12:01:18;;;;;;;3.97;3.57;;;8.10;51.60;;;;;;4972057;28;20585;-67
2023/11/12 12:03:44;;;;;;;4.10;3.70;;;8.10;51.40;;;;;;4986669;28;20206;-54
2023/11/12 12:06:11;;;;;;;4.17;3.87;;;8.10;51.60;;;;;;4990010;28;20234;-51
2023/11/12 12:08:37;;;;;;;4.60;3.97;;;8.10;50.50;;;;;;4976342;28;20310;-55
2023/11/12 12:11:04;;;;;;;4.47;4.07;;;8.10;50.70;;;;;;4993500;28;20258;-53
2023/11/12 12:13:30;;;;;;;4.70;3.97;;;8.20;51.00;;;;;;4992790;28;20679;-53
2023/11/12 12:15:57;;;;;;;4.27;3.87;;;8.20;51.00;;;;;;4992053;28;20277;-53
2023/11/12 12:18:23;;;;;;;4.67;4.27;;;8.30;49.70;;;;;;4992504;28;20238;-55
2023/11/12 12:20:51;;;;;;;4.20;3.83;;;8.50;50.50;;;;;;4992864;28;20615;-55
2023/11/12 12:23:17;;;;;;;3.80;3.50;;;8.70;49.40;;;;;;4979499;28;20233;-55
2023/11/12 12:25:44;;;;;;;3.73;3.43;;;9.00;47.60;;;;;;4977274;28;20228;-58
2023/11/12 12:28:11;;;;;;;3.33;3.13;;;9.30;47.20;;;;;;4976371;28;20220;-54
2023/11/12 12:30:38;;;;;;;2.90;2.70;;;9.60;46.30;;;;;;4987953;28;20224;-55
2023/11/12 12:33:04;;;;;;;3.67;2.77;;;9.70;42.80;;;;;;4988701;28;20228;-56
2023/11/12 12:35:31;;;;;;;2.80;2.30;;;9.40;41.80;;;;;;4991476;28;20705;-57
2023/11/12 12:37:57;;;;;;;2.47;2.27;;;9.40;42.10;;;;;;4989289;28;20215;-57
2023/11/12 12:40:24;;;;;;;2.80;2.47;;;9.70;41.20;;;;;;4991929;28;20294;-57
2023/11/12 12:42:50;;;;;;;2.50;2.30;;;9.70;41.30;;;;;;4985154;28;20349;-57
2023/11/12 12:45:18;;;;;;;3.23;2.93;;;9.60;42.30;;;;;;4988890;28;20290;-56
2023/11/12 12:47:44;;;;;;;3.10;2.43;;;9.50;42.50;;;;;;4983695;28;20210;-57
2023/11/12 12:50:12;;;;;;;3.07;2.47;;;9.20;41.80;;;;;;4978867;28;20305;-56
2023/11/12 12:52:42;;;;;;;2.87;2.60;;;9.10;42.60;;;;;;4983318;28;20223;-54
2023/11/12 12:55:10;;;;;;;2.60;2.40;;;9.00;43.40;;;;;;4990523;28;20714;-56